TimeEST,TemperatureF,Dew PointF,Humidity,Sea Level PressureIn,VisibilityMPH,Wind Direction,Wind SpeedMPH,Gust SpeedMPH,PrecipitationIn,Events,Conditions,WindDirDegrees,DateUTC
12:53 AM,21.9,15.1,75,30.22,10.0,WNW,4.6,-,N/A,,Overcast,300,2012-12-22 05:53:00
1:53 AM,21.9,15.1,75,30.22,10.0,WNW,5.8,-,N/A,,Overcast,290,2012-12-22 06:53:00
2:53 AM,21.0,15.1,78,30.23,10.0,WNW,4.6,-,N/A,,Overcast,290,2012-12-22 07:53:00
3:09 AM,19.4,14.0,80,30.21,10.0,WNW,4.6,-,N/A,,Scattered Clouds,290,2012-12-22 08:09:00
3:53 AM,17.1,12.9,84,30.24,10.0,Calm,Calm,-,N/A,,Clear,0,2012-12-22 08:53:00
4:53 AM,17.1,12.9,84,30.25,10.0,WSW,3.5,-,N/A,,Clear,250,2012-12-22 09:53:00
5:53 AM,16.0,12.0,84,30.25,10.0,West,3.5,-,N/A,,Clear,260,2012-12-22 10:53:00
6:53 AM,16.0,12.0,84,30.27,9.0,West,3.5,-,N/A,,Clear,260,2012-12-22 11:53:00
7:53 AM,12.0,7.0,80,30.29,7.0,WSW,3.5,-,N/A,,Clear,250,2012-12-22 12:53:00
8:53 AM,16.0,12.0,84,30.29,7.0,WSW,3.5,-,N/A,,Clear,250,2012-12-22 13:53:00
9:53 AM,18.0,12.9,81,30.30,10.0,West,4.6,-,N/A,,Clear,260,2012-12-22 14:53:00
10:53 AM,21.9,14.0,72,30.29,10.0,Calm,Calm,-,N/A,,Clear,0,2012-12-22 15:53:00
11:53 AM,25.0,15.1,66,30.27,10.0,WSW,5.8,-,N/A,,Clear,240,2012-12-22 16:53:00
12:53 PM,28.0,14.0,56,30.25,10.0,West,3.5,-,N/A,,Clear,280,2012-12-22 17:53:00
1:53 PM,30.0,15.1,54,30.22,10.0,SSW,4.6,-,N/A,,Clear,200,2012-12-22 18:53:00
2:53 PM,30.9,16.0,54,30.19,10.0,SSW,4.6,-,N/A,,Clear,200,2012-12-22 19:53:00
3:53 PM,33.1,16.0,50,30.18,10.0,SW,3.5,-,N/A,,Clear,220,2012-12-22 20:53:00
4:53 PM,33.1,18.0,54,30.17,10.0,SSE,4.6,-,N/A,,Clear,160,2012-12-22 21:53:00
5:53 PM,30.0,18.0,61,30.16,10.0,SSE,3.5,-,N/A,,Clear,150,2012-12-22 22:53:00
6:53 PM,28.0,17.1,63,30.13,10.0,SSE,4.6,-,N/A,,Clear,150,2012-12-22 23:53:00
7:53 PM,28.0,18.0,66,30.11,10.0,SSE,6.9,-,N/A,,Clear,150,2012-12-23 00:53:00
8:53 PM,28.0,17.1,63,30.09,10.0,South,4.6,-,N/A,,Clear,170,2012-12-23 01:53:00
9:53 PM,28.0,17.1,63,30.07,10.0,SSE,6.9,-,N/A,,Clear,150,2012-12-23 02:53:00
10:53 PM,26.1,16.0,66,30.06,10.0,SE,4.6,-,N/A,,Clear,140,2012-12-23 03:53:00
11:53 PM,21.0,14.0,74,30.05,10.0,Calm,Calm,-,N/A,,Clear,0,2012-12-23 04:53:00